Time;durP1;ratioP1;P1;durP2;ratioP2;P2;SDS_P1;SDS_P2;PMS_P1;PMS_P2;Temp;Humidity;BMP_temperature;BMP_pressure;BME280_temperature;BME280_humidity;BME280_pressure;Samples;Min_cycle;Max_cycle;Signal;HPM_P1;HPM_P2
2022/03/30 00:01:56;;;;;;;34.63;22.00;;;;;;;5.64;65.79;99633.59;1792065;80;22065;-74
2022/03/30 00:04:23;;;;;;;32.67;21.33;;;;;;;5.63;65.85;99633.20;1779450;80;21117;-74
2022/03/30 00:06:50;;;;;;;38.10;22.97;;;;;;;5.63;65.90;99639.70;1792017;80;21039;-77
2022/03/30 00:09:17;;;;;;;36.10;21.97;;;;;;;5.62;65.81;99638.42;1792099;80;20980;-74
2022/03/30 00:11:44;;;;;;;34.23;21.53;;;;;;;5.60;65.89;99633.29;1792192;80;21528;-74
2022/03/30 00:14:12;;;;;;;32.77;21.83;;;;;;;5.58;65.95;99633.77;1792225;80;21035;-73
2022/03/30 00:16:40;;;;;;;36.07;22.80;;;;;;;5.56;66.04;99634.26;1811581;79;21944;-74
2022/03/30 00:19:08;;;;;;;33.53;21.77;;;;;;;5.54;66.10;99633.44;1779556;80;20985;-79
2022/03/30 00:21:36;;;;;;;33.97;21.70;;;;;;;5.53;66.06;99632.59;1792112;80;20987;-73
2022/03/30 00:24:04;;;;;;;34.93;21.73;;;;;;;5.53;66.17;99633.89;1792491;80;21062;-74
2022/03/30 00:26:31;;;;;;;36.00;22.03;;;;;;;5.52;66.15;99636.10;1792096;80;21040;-74
2022/03/30 00:28:59;;;;;;;32.27;21.27;;;;;;;5.49;66.23;99628.85;1776194;79;21228;-74
2022/03/30 00:31:27;;;;;;;34.30;21.80;;;;;;;5.48;66.26;99631.88;1786264;80;21501;-74
2022/03/30 00:33:54;;;;;;;34.83;21.77;;;;;;;5.47;66.33;99628.88;1786318;80;21008;-74
2022/03/30 00:36:22;;;;;;;38.37;22.43;;;;;;;5.46;66.29;99632.80;1786494;80;20984;-78
2022/03/30 00:38:49;;;;;;;30.80;21.33;;;;;;;5.45;66.42;99637.61;1786351;80;20989;-74
2022/03/30 00:41:16;;;;;;;38.67;22.00;;;;;;;5.43;66.48;99629.88;1755358;81;21246;-73
2022/03/30 00:43:43;;;;;;;31.23;20.97;;;;;;;5.43;66.51;99636.38;1764872;81;21060;-75
2022/03/30 00:46:12;;;;;;;34.00;21.47;;;;;;;5.40;66.47;99626.48;1765185;81;21008;-74
2022/03/30 00:48:42;;;;;;;36.63;21.90;;;;;;;5.35;66.46;99633.14;1764851;81;21059;-79
2022/03/30 00:51:09;;;;;;;40.10;22.25;;;;;;;5.29;66.46;99628.96;1765222;81;21011;-74
2022/03/30 00:53:37;;;;;;;33.00;21.67;;;;;;;5.23;66.51;99625.21;1764883;81;21188;-74
2022/03/30 00:56:07;;;;;;;34.80;21.30;;;;;;;5.16;66.52;99626.29;1765197;81;21020;-74
2022/03/30 00:58:35;;;;;;;37.08;22.82;;;;;;;5.09;66.54;99629.94;1765028;81;21039;-77
2022/03/30 01:01:03;;;;;;;33.73;20.27;;;;;;;5.02;66.64;99628.41;1764917;81;21058;-74
2022/03/30 01:03:30;;;;;;;36.37;21.67;;;;;;;4.93;66.31;99626.88;1764948;81;21047;-74
2022/03/30 01:05:57;;;;;;;33.53;20.67;;;;;;;4.81;66.48;99622.88;1764900;81;21128;-74
2022/03/30 01:08:24;;;;;;;31.57;20.60;;;;;;;4.70;66.29;99628.78;1764665;81;21011;-74
2022/03/30 01:10:53;;;;;;;33.80;20.53;;;;;;;4.57;65.83;99632.16;1764813;81;21282;-74
2022/03/30 01:13:21;;;;;;;36.73;22.10;;;;;;;4.38;66.02;99636.94;1764922;81;21028;-74
2022/03/30 01:15:48;;;;;;;30.40;20.77;;;;;;;4.26;66.16;99632.02;1764900;81;21032;-74
2022/03/30 01:18:16;;;;;;;33.30;21.00;;;;;;;4.13;66.09;99628.88;1764779;81;21290;-74
2022/03/30 01:20:50;;;;;;;37.33;22.23;;;;;;;4.00;66.24;99629.59;1765102;81;21071;-75
2022/03/30 01:23:18;;;;;;;34.97;21.13;;;;;;;3.90;66.46;99629.83;1763817;81;20996;-74
2022/03/30 01:25:46;;;;;;;33.10;20.23;;;;;;;3.82;66.58;99625.25;1765252;81;20993;-74
2022/03/30 01:28:13;;;;;;;32.43;19.50;;;;;;;3.65;66.01;99625.17;1764807;81;21019;-74
2022/03/30 01:33:27;;;;;;;34.10;20.23;;;;;;;3.38;65.98;99630.50;1793454;80;21004;-73
2022/03/30 01:35:54;;;;;;;36.13;22.63;;;;;;;3.23;66.32;99624.31;1789501;80;20996;-74
2022/03/30 01:38:22;;;;;;;35.07;22.30;;;;;;;3.15;66.68;99620.57;1821552;78;20996;-74
2022/03/30 01:40:49;;;;;;;38.77;22.63;;;;;;;3.03;66.34;99615.64;1789549;80;20999;-73
2022/03/30 01:43:16;;;;;;;35.57;22.50;;;;;;;2.91;66.98;99614.14;1821576;78;21528;-74
2022/03/30 01:45:43;;;;;;;38.80;20.93;;;;;;;2.82;67.23;99607.81;1789472;80;20990;-75
2022/03/30 01:48:10;;;;;;;40.90;22.33;;;;;;;2.71;66.71;99610.59;1821886;78;21009;-77
2022/03/30 01:50:38;;;;;;;35.77;21.47;;;;;;;2.56;66.62;99608.28;1789230;80;21583;-77
2022/03/30 01:53:05;;;;;;;34.47;21.23;;;;;;;2.48;67.16;99610.15;1821846;78;21031;-73
2022/03/30 01:55:33;;;;;;;37.17;22.33;;;;;;;2.43;67.31;99609.77;1789386;80;21305;-74
2022/03/30 01:58:01;;;;;;;39.23;22.27;;;;;;;2.36;67.34;99601.72;1821798;78;21011;-73
2022/03/30 02:00:29;;;;;;;34.30;21.43;;;;;;;2.32;67.55;99601.34;1789316;80;21054;-73
2022/03/30 02:02:56;;;;;;;34.90;21.30;;;;;;;2.25;67.47;99607.50;1821809;78;20988;-73
2022/03/30 02:05:24;;;;;;;40.23;22.93;;;;;;;2.18;67.75;99601.55;1789387;80;21003;-74
2022/03/30 02:07:51;;;;;;;39.10;22.50;;;;;;;2.12;67.88;99604.24;1821918;78;21101;-73
2022/03/30 02:10:19;;;;;;;38.97;22.83;;;;;;;2.03;67.95;99597.08;1789108;80;21432;-72
2022/03/30 02:12:46;;;;;;;37.33;23.03;;;;;;;1.96;67.90;99598.88;1821845;78;21550;-73
2022/03/30 02:15:13;;;;;;;36.50;21.53;;;;;;;1.86;67.90;99601.17;1789225;80;21015;-74
2022/03/30 02:17:41;;;;;;;39.37;23.10;;;;;;;1.76;67.84;99599.17;1822043;78;21015;-73
2022/03/30 02:20:11;;;;;;;36.77;21.60;;;;;;;1.72;68.48;99598.38;1789263;80;21468;-72
2022/03/30 02:22:40;;;;;;;37.15;21.87;;;;;;;1.67;68.15;99598.02;1821884;78;21496;-73
2022/03/30 02:25:09;;;;;;;38.70;22.20;;;;;;;1.60;68.58;99601.55;1789252;80;21030;-73
2022/03/30 02:27:38;;;;;;;37.43;21.43;;;;;;;1.55;68.56;99599.02;1821734;78;21003;-73
2022/03/30 02:30:08;;;;;;;38.47;21.33;;;;;;;1.50;68.64;99596.52;1789291;79;21030;-78
2022/03/30 02:32:36;;;;;;;;;;;;;;;1.42;68.28;99591.89;1824391;78;21218;-73
2022/03/30 02:35:05;;;;;;;37.43;21.30;;;;;;;1.35;68.40;99590.24;1821794;78;20180;-73
2022/03/30 02:37:32;;;;;;;37.67;22.77;;;;;;;1.22;68.33;99586.98;1789202;80;21007;-73
2022/03/30 02:39:59;;;;;;;39.00;22.37;;;;;;;1.18;68.90;99585.73;1821914;78;20965;-73
2022/03/30 02:42:27;;;;;;;42.17;23.00;;;;;;;1.16;68.97;99592.19;1789210;80;21505;-73
2022/03/30 02:44:54;;;;;;;40.07;22.57;;;;;;;1.09;68.85;99588.84;1821923;78;21095;-73
2022/03/30 02:48:17;;;;;;;37.13;21.53;;;;;;;1.01;68.81;99595.81;1789069;80;20963;-77
2022/03/30 02:49:50;;;;;;;42.60;23.03;;;;;;;0.93;68.96;99592.89;1817161;78;20988;-73
2022/03/30 02:52:17;;;;;;;39.47;21.60;;;;;;;0.85;68.97;99592.53;1789271;80;20967;-73
2022/03/30 02:54:44;;;;;;;41.47;22.60;;;;;;;0.77;68.88;99586.59;1821863;78;21011;-73
2022/03/30 02:57:11;;;;;;;37.80;22.50;;;;;;;0.72;69.17;99592.27;1789288;80;21452;-73
2022/03/30 02:59:38;;;;;;;38.00;23.10;;;;;;;0.70;69.24;99595.73;1821728;78;20999;-73
2022/03/30 03:02:06;;;;;;;37.63;21.90;;;;;;;0.66;69.62;99590.56;1789428;80;21030;-73
2022/03/30 03:04:33;;;;;;;41.30;21.87;;;;;;;0.68;69.60;99593.59;1821508;78;21035;-73
2022/03/30 03:07:00;;;;;;;45.27;23.27;;;;;;;0.66;69.70;99586.70;1789272;80;21002;-73
2022/03/30 03:09:27;;;;;;;36.27;21.53;;;;;;;0.64;69.73;99588.46;1821573;78;21129;-73
2022/03/30 03:11:54;;;;;;;41.47;22.40;;;;;;;0.60;69.70;99589.78;1789361;80;20995;-78
2022/03/30 03:14:21;;;;;;;42.63;22.43;;;;;;;0.59;69.82;99589.37;1821603;78;20981;-73
2022/03/30 03:16:49;;;;;;;38.57;21.77;;;;;;;0.57;69.77;99585.95;1789545;80;21528;-77
2022/03/30 03:19:15;;;;;;;40.60;22.37;;;;;;;0.56;69.89;99587.68;1821542;78;21011;-72
2022/03/30 03:21:43;;;;;;;42.70;22.97;;;;;;;0.54;69.69;99584.25;1789568;80;21057;-75
2022/03/30 03:24:10;;;;;;;43.60;22.00;;;;;;;0.47;69.63;99583.88;1821532;78;21004;-73
2022/03/30 03:26:37;;;;;;;36.70;20.43;;;;;;;0.38;69.68;99583.53;1789245;80;21493;-73
2022/03/30 03:29:04;;;;;;;36.97;21.53;;;;;;;0.33;69.80;99584.00;1821584;78;20988;-74
2022/03/30 03:31:32;;;;;;;41.90;20.57;;;;;;;0.27;69.86;99582.77;1796307;79;20986;-73
2022/03/30 03:33:59;;;;;;;36.47;20.43;;;;;;;0.23;70.03;99582.39;1830858;78;21123;-73
2022/03/30 03:36:26;;;;;;;36.10;20.27;;;;;;;0.19;69.96;99583.27;1798170;79;20998;-74
2022/03/30 03:38:53;;;;;;;39.57;21.30;;;;;;;0.15;70.19;99584.17;1830766;78;21008;-75
2022/03/30 03:41:20;;;;;;;35.77;21.27;;;;;;;0.14;70.51;99582.44;1798343;79;20982;-73
2022/03/30 03:43:48;;;;;;;41.70;20.00;;;;;;;0.11;70.34;99585.92;1831085;78;21011;-73
2022/03/30 03:46:15;;;;;;;34.70;20.83;;;;;;;0.05;70.46;99582.08;1798288;79;21121;-73
2022/03/30 03:48:42;;;;;;;33.37;20.47;;;;;;;0.04;70.58;99584.69;1830985;78;21011;-73
2022/03/30 03:51:10;;;;;;;34.90;19.77;;;;;;;-0.03;70.39;99585.14;1798357;79;20990;-73
2022/03/30 03:53:37;;;;;;;32.37;19.30;;;;;;;-0.08;70.28;99584.34;1830998;78;20965;-73
2022/03/30 03:56:06;;;;;;;32.17;18.87;;;;;;;-0.13;70.45;99581.80;1798632;79;21246;-73
2022/03/30 03:58:33;;;;;;;31.27;18.20;;;;;;;-0.16;70.46;99582.25;1830978;78;21764;-73
2022/03/30 04:01:00;;;;;;;36.50;21.20;;;;;;;-0.21;70.44;99586.58;1798597;79;20990;-73
2022/03/30 04:03:27;;;;;;;34.03;18.97;;;;;;;-0.25;70.55;99585.31;1831005;78;21402;-73
2022/03/30 04:05:55;;;;;;;28.97;17.70;;;;;;;-0.31;70.60;99585.32;1798552;79;20930;-73
2022/03/30 04:08:22;;;;;;;25.97;17.57;;;;;;;-0.34;70.71;99581.92;1831333;78;21004;-73
2022/03/30 04:10:49;;;;;;;29.63;18.10;;;;;;;-0.35;70.80;99585.38;1798283;79;22006;-73
2022/03/30 04:13:16;;;;;;;28.60;17.13;;;;;;;-0.39;70.72;99585.80;1831161;78;21039;-73
2022/03/30 04:15:43;;;;;;;28.37;17.83;;;;;;;-0.43;70.75;99581.98;1798522;79;21001;-75
2022/03/30 04:18:10;;;;;;;32.17;18.30;;;;;;;-0.49;70.89;99582.44;1831117;78;21047;-73
2022/03/30 04:20:39;;;;;;;31.33;17.60;;;;;;;-0.52;70.96;99577.30;1798658;79;20970;-73
2022/03/30 04:23:07;;;;;;;36.33;19.70;;;;;;;-0.56;70.85;99573.02;1803758;78;21914;-75
2022/03/30 04:25:34;;;;;;;35.00;20.87;;;;;;;-0.60;70.96;99573.91;1798290;79;21276;-73
2022/03/30 04:28:01;;;;;;;34.73;20.10;;;;;;;-0.62;71.26;99584.64;1831143;78;21019;-73
2022/03/30 04:30:28;;;;;;;24.87;15.70;;;;;;;-0.65;71.21;99574.36;1798463;79;21063;-73
2022/03/30 04:32:55;;;;;;;26.40;16.73;;;;;;;-0.67;71.44;99579.94;1830953;78;20979;-73
2022/03/30 04:35:25;;;;;;;29.13;17.17;;;;;;;-0.70;71.53;99578.67;1798595;79;21110;-73
2022/03/30 04:37:55;;;;;;;21.70;14.10;;;;;;;-0.74;71.43;99571.84;1831208;78;20992;-73
2022/03/30 04:40:24;;;;;;;16.17;11.35;;;;;;;-0.78;71.45;99581.27;1796975;79;20994;-75
2022/03/30 04:42:52;;;;;;;21.93;15.47;;;;;;;-0.79;71.50;99580.02;1831229;78;20964;-74
2022/03/30 04:45:19;;;;;;;25.07;17.23;;;;;;;-0.84;71.66;99582.59;1798225;79;21006;-74
2022/03/30 04:47:46;;;;;;;26.63;18.10;;;;;;;-0.89;71.52;99585.61;1831245;78;21794;-77
2022/03/30 04:50:13;;;;;;;24.93;17.33;;;;;;;-0.94;71.60;99584.80;1798175;79;21464;-74
2022/03/30 04:52:41;;;;;;;24.43;16.43;;;;;;;-1.00;71.61;99583.50;1831231;78;21011;-73
2022/03/30 04:55:10;;;;;;;27.20;18.40;;;;;;;-1.03;72.02;99584.80;1798315;79;21001;-73
2022/03/30 04:57:40;;;;;;;26.50;18.13;;;;;;;-1.01;72.30;99579.23;1830909;78;21420;-73
2022/03/30 05:00:11;;;;;;;26.97;17.57;;;;;;;-1.02;72.33;99579.67;1798520;79;21101;-75
2022/03/30 05:02:40;;;;;;;26.23;16.73;;;;;;;-1.04;72.38;99580.09;1830937;78;21015;-74
2022/03/30 05:05:10;;;;;;;23.23;15.50;;;;;;;-1.01;72.60;99592.94;1798506;79;20974;-77
2022/03/30 05:07:40;;;;;;;24.87;15.38;;;;;;;-0.96;72.71;99588.64;1831023;78;21052;-75
2022/03/30 05:10:11;;;;;;;23.27;15.05;;;;;;;-0.95;72.58;99586.48;1798399;79;21317;-73
2022/03/30 05:12:39;;;;;;;21.27;15.00;;;;;;;-0.94;72.57;99582.22;1830781;78;21497;-74
2022/03/30 05:15:11;;;;;;;22.17;15.53;;;;;;;-0.94;72.64;99586.93;1798165;79;21053;-73
2022/03/30 05:17:43;;;;;;;43.90;25.40;;;;;;;-0.90;72.77;99585.19;1830314;78;21560;-75
2022/03/30 05:20:14;;;;;;;36.80;22.47;;;;;;;-0.86;73.00;99590.73;1829127;78;20911;-75
2022/03/30 05:22:41;;;;;;;35.20;20.93;;;;;;;-0.84;72.96;99589.45;1792343;79;21313;-74
2022/03/30 05:25:10;;;;;;;39.07;22.90;;;;;;;-0.81;72.99;99592.86;1808226;78;21194;-75
2022/03/30 05:27:39;;;;;;;47.00;28.10;;;;;;;-0.75;73.16;99599.70;1800268;78;20975;-75
2022/03/30 05:30:08;;;;;;;38.80;23.23;;;;;;;-0.74;73.16;99593.28;1817382;78;20987;-75
2022/03/30 05:32:35;;;;;;;32.07;19.87;;;;;;;-0.74;73.09;99604.86;1779468;79;21043;-79
2022/03/30 05:35:04;;;;;;;32.80;19.70;;;;;;;-0.72;73.23;99602.27;1778163;80;21016;-75
2022/03/30 05:37:32;;;;;;;31.40;20.10;;;;;;;-0.70;73.36;99598.83;1778559;80;21176;-75
2022/03/30 05:39:59;;;;;;;32.00;19.87;;;;;;;-0.64;73.59;99597.94;1778184;80;20981;-79
2022/03/30 05:42:26;;;;;;;30.30;18.30;;;;;;;-0.56;73.77;99600.05;1778432;80;21020;-74
2022/03/30 05:44:54;;;;;;;29.87;19.07;;;;;;;-0.48;73.96;99598.73;1781618;78;21474;-74
2022/03/30 05:47:23;;;;;;;34.92;20.50;;;;;;;-0.39;74.06;99602.97;1754702;81;21055;-74
2022/03/30 05:49:50;;;;;;;37.03;20.93;;;;;;;-0.29;74.17;99600.78;1789543;80;21192;-74
2022/03/30 05:52:17;;;;;;;29.60;19.43;;;;;;;-0.20;74.26;99602.00;1792357;78;20896;-75
2022/03/30 05:54:44;;;;;;;32.03;19.60;;;;;;;-0.11;74.37;99598.51;1821516;78;21008;-77
2022/03/30 05:57:11;;;;;;;51.30;27.90;;;;;;;-0.02;74.58;99601.05;1802545;78;21048;-74
2022/03/30 05:59:41;;;;;;;67.20;34.93;;;;;;;0.08;74.67;99600.53;1790961;78;21481;-74
2022/03/30 06:02:11;;;;;;;67.10;36.65;;;;;;;0.17;74.71;99603.06;1811439;78;21096;-75
2022/03/30 06:04:41;;;;;;;68.55;34.25;;;;;;;0.27;74.77;99601.25;1812423;78;21491;-74
2022/03/30 06:07:08;;;;;;;61.33;33.05;;;;;;;0.36;74.89;99600.75;1803667;78;21016;-74
2022/03/30 06:09:35;;;;;;;56.50;31.67;;;;;;;0.50;75.00;99608.78;1759382;80;21005;-74
2022/03/30 06:12:04;;;;;;;56.47;29.33;;;;;;;0.62;75.03;99612.11;1817887;78;21590;-77
2022/03/30 06:14:32;;;;;;;62.33;33.93;;;;;;;0.75;75.14;99610.69;1789957;78;21181;-75
2022/03/30 06:17:04;;;;;;;126.67;66.10;;;;;;;0.89;75.28;99611.44;1822013;78;21027;-74
2022/03/30 06:19:33;;;;;;;214.20;112.60;;;;;;;1.02;75.36;99605.25;1821610;78;20961;-74
2022/03/30 06:22:08;;;;;;;164.70;89.63;;;;;;;1.16;75.40;99610.70;1796184;78;21007;-74
2022/03/30 06:24:38;;;;;;;352.33;146.83;;;;;;;1.29;75.32;99618.28;1780995;79;21005;-74
2022/03/30 06:27:06;;;;;;;404.10;185.93;;;;;;;1.42;75.18;99612.98;1806330;78;21161;-73
2022/03/30 06:29:34;;;;;;;343.73;158.10;;;;;;;1.52;75.07;99613.27;1794704;78;20996;-74
2022/03/30 06:32:02;;;;;;;260.37;118.77;;;;;;;1.62;75.00;99612.28;1761928;81;21458;-73
2022/03/30 06:34:30;;;;;;;163.53;80.80;;;;;;;1.76;75.07;99613.39;1762377;81;21012;-74
2022/03/30 06:36:58;;;;;;;117.27;58.07;;;;;;;1.88;75.07;99609.33;1761992;81;21016;-73
2022/03/30 06:39:25;;;;;;;58.47;32.00;;;;;;;2.01;75.01;99612.16;1762276;81;21206;-73
2022/03/30 06:41:52;;;;;;;37.17;21.93;;;;;;;2.15;75.29;99609.36;1762123;81;20952;-72
2022/03/30 06:44:34;;;;;;;37.63;20.97;;;;;;;2.31;75.57;99609.14;1762253;81;21001;-72
2022/03/30 06:47:01;;;;;;;35.97;21.10;;;;;;;2.45;75.63;99614.48;1762157;81;21028;-72
2022/03/30 06:49:28;;;;;;;33.87;20.60;;;;;;;2.60;75.60;99612.06;1762170;81;21088;-72
2022/03/30 06:51:55;;;;;;;35.43;20.53;;;;;;;2.74;75.58;99607.09;1762071;81;21063;-73
2022/03/30 06:54:22;;;;;;;41.43;22.77;;;;;;;2.87;75.47;99612.03;1762072;81;21043;-73
2022/03/30 06:56:49;;;;;;;48.50;25.43;;;;;;;3.03;75.39;99606.13;1762074;81;20964;-73
2022/03/30 06:59:18;;;;;;;39.97;23.10;;;;;;;3.21;75.08;99611.83;1762172;81;21036;-72
2022/03/30 07:01:45;;;;;;;34.70;20.10;;;;;;;3.37;74.97;99605.91;1768009;80;20998;-73
2022/03/30 07:04:12;;;;;;;28.90;14.73;;;;;;;3.52;74.79;99605.58;1791746;80;21832;-78
2022/03/30 07:10:14;;;;;;;21.27;9.77;;;;;;;3.68;74.35;99610.84;1821011;78;20984;-72
2022/03/30 07:11:53;;;;;;;22.10;9.80;;;;;;;4.00;72.88;99602.81;1791763;78;21068;-75
2022/03/30 07:14:20;;;;;;;18.67;9.60;;;;;;;4.19;72.40;99611.02;1801970;78;20996;-74
2022/03/30 07:16:47;;;;;;;21.20;9.90;;;;;;;4.35;72.17;99598.09;1824627;78;21438;-73
2022/03/30 07:19:14;;;;;;;20.50;10.20;;;;;;;4.52;71.78;99601.98;1783315;80;21556;-73
2022/03/30 07:21:41;;;;;;;22.30;10.37;;;;;;;4.67;71.45;99600.31;1792675;80;21015;-72
2022/03/30 07:24:08;;;;;;;18.97;8.83;;;;;;;4.81;70.99;99593.47;1787529;79;21030;-72
2022/03/30 07:26:36;;;;;;;18.93;8.87;;;;;;;4.92;70.34;99609.61;1791515;78;47882;-71
2022/03/30 07:29:03;;;;;;;21.30;8.73;;;;;;;5.03;69.89;99606.28;1789709;79;21044;-72
2022/03/30 07:31:30;;;;;;;19.00;8.47;;;;;;;5.14;69.71;99605.99;1787481;79;21071;-70
2022/03/30 07:33:56;;;;;;;17.93;9.17;;;;;;;5.28;69.45;99604.30;1768275;79;21079;-70
2022/03/30 07:36:24;;;;;;;21.37;8.07;;;;;;;5.42;69.04;99605.22;1768576;80;21004;-72
2022/03/30 07:38:51;;;;;;;18.80;7.93;;;;;;;5.52;68.47;99606.66;1766042;79;20985;-75
2022/03/30 07:41:18;;;;;;;19.97;8.10;;;;;;;5.61;68.25;99601.19;1772299;80;21815;-71
2022/03/30 07:43:45;;;;;;;22.17;7.40;;;;;;;5.73;67.75;99605.16;1769255;80;20957;-71
2022/03/30 07:46:13;;;;;;;15.40;7.77;;;;;;;5.83;67.52;99607.05;1767371;80;21004;-71
2022/03/30 07:48:41;;;;;;;17.07;7.27;;;;;;;5.95;67.01;99601.50;1764380;80;21084;-75
2022/03/30 07:51:08;;;;;;;13.47;6.40;;;;;;;6.05;66.88;99604.68;1757663;80;21039;-78
2022/03/30 07:53:35;;;;;;;13.43;7.07;;;;;;;6.15;66.42;99602.17;1770435;80;21824;-81
2022/03/30 07:56:02;;;;;;;18.20;7.10;;;;;;;6.24;66.06;99594.09;1771265;80;21036;-76
2022/03/30 07:58:31;;;;;;;21.00;8.47;;;;;;;6.31;65.71;99594.27;1769249;80;21069;-80
2022/03/30 08:00:58;;;;;;;18.93;9.07;;;;;;;6.42;65.76;99598.67;1766234;80;21004;-80
2022/03/30 08:03:25;;;;;;;17.67;9.30;;;;;;;6.55;65.68;99596.98;1762566;81;21073;-75
2022/03/30 08:05:52;;;;;;;22.33;9.27;;;;;;;6.70;65.67;99588.64;1765690;80;21058;-73
2022/03/30 08:08:19;;;;;;;19.70;9.67;;;;;;;6.82;65.21;99586.94;1769316;80;20976;-71
2022/03/30 08:10:46;;;;;;;21.10;10.10;;;;;;;6.90;64.84;99574.50;1763425;80;21067;-70
2022/03/30 08:13:13;;;;;;;21.90;11.77;;;;;;;6.99;64.57;99580.29;1752565;80;21009;-71
2022/03/30 08:15:42;;;;;;;24.10;11.17;;;;;;;7.05;64.46;99581.37;1757104;80;21008;-71
2022/03/30 08:18:09;;;;;;;21.93;10.90;;;;;;;7.14;64.35;99577.12;1771145;80;21144;-71
2022/03/30 08:23:21;;;;;;;20.10;10.37;;;;;;;7.35;63.87;99573.73;1783680;80;20993;-71
2022/03/30 08:25:48;;;;;;;21.47;10.60;;;;;;;7.48;63.60;99570.23;1783806;80;21443;-71
2022/03/30 08:28:15;;;;;;;22.00;10.33;;;;;;;7.54;62.99;99570.45;1783656;80;20989;-71
2022/03/30 08:30:42;;;;;;;24.27;9.53;;;;;;;7.60;62.86;99569.75;1783676;80;21098;-71
2022/03/30 08:33:09;;;;;;;19.70;9.77;;;;;;;7.69;62.64;99569.00;1783654;80;20992;-72
2022/03/30 08:35:36;;;;;;;13.27;7.37;;;;;;;7.80;62.21;99568.13;1783633;80;21525;-71
2022/03/30 08:38:03;;;;;;;13.50;6.93;;;;;;;7.93;61.60;99572.43;1783786;80;20992;-71
2022/03/30 08:40:29;;;;;;;17.47;9.03;;;;;;;8.02;61.23;99571.59;1783663;80;20998;-71
2022/03/30 08:42:56;;;;;;;15.57;7.07;;;;;;;8.15;61.01;99569.81;1783645;80;21122;-71
2022/03/30 08:45:24;;;;;;;12.90;5.90;;;;;;;8.30;60.78;99567.88;1784060;80;21055;-71
2022/03/30 08:47:51;;;;;;;13.47;5.83;;;;;;;8.48;60.46;99561.09;1783738;80;20989;-71
2022/03/30 08:50:19;;;;;;;12.80;6.00;;;;;;;8.63;59.97;99560.89;1783625;80;21461;-71
2022/03/30 08:52:49;;;;;;;17.93;7.57;;;;;;;8.70;59.50;99557.95;1783665;80;21027;-72
2022/03/30 08:55:16;;;;;;;18.53;5.63;;;;;;;8.79;59.32;99552.79;1783883;80;21183;-73
2022/03/30 08:57:43;;;;;;;16.13;5.60;;;;;;;8.91;58.90;99552.70;1783586;80;20996;-71
2022/03/30 09:00:19;;;;;;;13.87;5.70;;;;;;;9.08;58.86;99552.80;1784065;80;21031;-72
2022/03/30 09:03:01;;;;;;;13.60;5.23;;;;;;;9.24;58.39;99545.13;1783684;80;20988;-73
2022/03/30 09:05:31;;;;;;;14.73;5.13;;;;;;;9.36;57.86;99543.25;1783733;80;21024;-71
2022/03/30 09:08:21;;;;;;;11.43;4.70;;;;;;;9.51;57.25;99542.19;1783773;80;21178;-71
2022/03/30 09:10:51;;;;;;;14.53;5.65;;;;;;;9.54;56.44;99541.58;1783941;80;21024;-73
2022/03/30 09:13:18;;;;;;;18.17;7.55;;;;;;;9.58;56.28;99542.27;1783768;80;21590;-72
2022/03/30 09:15:51;;;;;;;12.97;5.53;;;;;;;9.69;55.93;99539.16;1783905;80;21016;-72
2022/03/30 09:18:19;;;;;;;11.07;4.80;;;;;;;9.82;55.69;99540.28;1783744;80;21047;-72
2022/03/30 09:20:51;;;;;;;12.10;5.10;;;;;;;9.93;55.82;99539.77;1783695;80;21112;-72
2022/03/30 09:23:19;;;;;;;14.87;5.03;;;;;;;10.17;55.67;99539.89;1783610;80;21011;-72
2022/03/30 09:25:49;;;;;;;11.63;5.23;;;;;;;10.31;54.95;99535.75;1783655;80;21028;-72
2022/03/30 09:28:19;;;;;;;11.93;4.67;;;;;;;10.39;54.71;99532.28;1783767;80;21023;-71
2022/03/30 09:30:47;;;;;;;13.17;4.57;;;;;;;10.55;54.58;99528.44;1783732;80;21008;-73
2022/03/30 09:33:21;;;;;;;9.37;4.57;;;;;;;10.62;53.71;99528.52;1781545;80;21131;-73
2022/03/30 09:35:48;;;;;;;16.43;4.40;;;;;;;10.65;53.21;99528.36;1780556;80;21004;-72
2022/03/30 09:38:21;;;;;;;10.93;4.00;;;;;;;10.67;53.03;99523.44;1780579;80;20972;-73
2022/03/30 09:41:01;;;;;;;10.75;4.80;;;;;;;10.72;52.57;99523.17;1777798;80;21051;-75
2022/03/30 09:43:33;;;;;;;9.95;4.10;;;;;;;10.73;51.96;99526.67;1803516;78;21075;-72
2022/03/30 09:46:15;;;;;;;11.18;4.55;;;;;;;10.77;52.02;99517.70;1790013;78;21904;-72
2022/03/30 09:48:53;;;;;;;14.83;5.33;;;;;;;10.93;51.85;99508.11;1756420;81;21269;-75
2022/03/30 09:51:24;;;;;;;13.18;4.70;;;;;;;11.08;51.86;99507.28;1794499;78;21020;-83
2022/03/30 09:53:52;;;;;;;9.78;4.25;;;;;;;11.22;51.43;99511.80;1788676;80;21965;-72
2022/03/30 09:56:24;;;;;;;12.73;4.25;;;;;;;11.36;51.28;99506.67;1789568;80;20993;-74
2022/03/30 09:59:05;;;;;;;13.70;4.42;;;;;;;11.51;50.56;99502.34;1788899;80;21210;-73
2022/03/30 10:01:34;;;;;;;10.35;4.50;;;;;;;11.50;50.04;99498.48;1758547;81;21003;-74
2022/03/30 10:04:04;;;;;;;12.20;4.62;;;;;;;11.55;50.06;99505.64;1789198;80;21595;-73
2022/03/30 10:06:40;;;;;;;14.43;4.25;;;;;;;11.70;49.90;99499.55;1790574;78;20959;-73
2022/03/30 10:09:06;;;;;;;10.18;3.90;;;;;;;11.87;49.92;99500.42;1771419;80;20980;-73
2022/03/30 10:11:33;;;;;;;13.58;3.90;;;;;;;12.01;49.18;99500.00;1821546;78;21185;-73
2022/03/30 10:14:05;;;;;;;10.72;4.28;;;;;;;11.99;48.84;99493.98;1789141;80;21004;-74
2022/03/30 10:16:31;;;;;;;13.22;3.95;;;;;;;11.97;48.57;99489.30;1821858;78;21060;-72
2022/03/30 10:18:58;;;;;;;13.85;4.53;;;;;;;11.99;48.18;99490.04;1789230;80;21532;-73
2022/03/30 10:21:47;;;;;;;12.80;4.37;;;;;;;12.06;48.17;99477.42;1821570;78;21535;-72
2022/03/30 10:24:35;;;;;;;10.43;3.95;;;;;;;12.27;47.88;99491.07;1783648;80;21308;-73
2022/03/30 10:27:13;;;;;;;11.25;4.15;;;;;;;12.22;47.15;99475.59;1820074;78;20996;-72
2022/03/30 10:29:57;;;;;;;10.93;4.08;;;;;;;12.27;47.08;99475.30;1787555;80;20992;-81
2022/03/30 10:32:27;;;;;;;9.58;4.03;;;;;;;12.49;47.37;99469.63;1821686;78;21591;-81
2022/03/30 10:35:11;;;;;;;14.20;4.50;;;;;;;12.67;47.13;99471.64;1787524;80;21059;-73
2022/03/30 10:37:42;;;;;;;9.98;4.15;;;;;;;12.83;47.06;99467.58;1821732;78;21234;-74
2022/03/30 10:40:18;;;;;;;11.97;4.22;;;;;;;13.02;46.79;99464.67;1824625;78;20920;-75
2022/03/30 10:42:57;;;;;;;9.33;3.90;;;;;;;13.15;46.26;99461.18;1824945;78;20980;-73
2022/03/30 10:45:44;;;;;;;9.95;3.90;;;;;;;13.21;45.92;99450.73;1787809;80;21087;-72
2022/03/30 10:48:25;;;;;;;11.50;4.17;;;;;;;13.34;45.69;99454.80;1821433;78;20984;-73
2022/03/30 10:50:59;;;;;;;11.40;4.50;;;;;;;13.39;45.11;99451.41;1759388;80;21062;-72
2022/03/30 10:53:34;;;;;;;9.18;3.83;;;;;;;13.39;44.72;99450.94;1770078;81;21592;-72
2022/03/30 10:56:09;;;;;;;11.93;4.17;;;;;;;13.53;45.00;99451.36;1755355;81;20980;-75
2022/03/30 10:58:55;;;;;;;13.40;4.62;;;;;;;13.89;44.76;99439.38;1755406;81;21000;-73
2022/03/30 11:01:32;;;;;;;13.00;5.45;;;;;;;14.31;44.34;99444.04;1764331;81;21023;-72
2022/03/30 11:04:14;;;;;;;9.58;5.08;;;;;;;14.51;44.20;99440.04;1764450;81;22006;-73
2022/03/30 11:06:44;;;;;;;9.85;4.30;;;;;;;14.57;43.72;99430.41;1764726;81;21031;-73
2022/03/30 11:09:28;;;;;;;8.00;4.17;;;;;;;14.53;43.39;99429.44;1765029;81;20943;-72
2022/03/30 11:12:02;;;;;;;9.43;4.08;;;;;;;14.40;42.94;99422.31;1764628;81;21003;-72
2022/03/30 11:14:39;;;;;;;11.53;4.40;;;;;;;14.40;42.94;99422.31;1765027;81;21150;-74
2022/03/30 11:17:09;;;;;;;10.70;4.70;;;;;;;14.50;42.78;99425.18;1764557;81;21850;-73
2022/03/30 11:19:57;;;;;;;10.95;4.45;;;;;;;14.41;42.27;99427.98;1781498;79;21062;-74
2022/03/30 11:22:33;;;;;;;6.72;3.72;;;;;;;14.27;42.09;99433.31;1796202;79;21051;-73
2022/03/30 11:25:22;;;;;;;10.58;4.03;;;;;;;14.26;42.29;99436.43;1796361;79;21006;-73
2022/03/30 11:28:08;;;;;;;9.03;4.65;;;;;;;14.36;42.32;99426.60;1796112;79;21497;-72
2022/03/30 11:30:43;;;;;;;12.37;6.90;;;;;;;14.41;41.92;99419.20;1782187;79;21137;-73
2022/03/30 11:33:19;;;;;;;8.13;4.15;;;;;;;14.70;41.60;99415.91;1769384;79;21431;-76
2022/03/30 11:35:49;;;;;;;10.55;4.55;;;;;;;14.70;41.60;99415.91;1770259;81;20996;-73
2022/03/30 11:38:24;;;;;;;11.95;4.15;;;;;;;15.06;41.33;99405.03;1775868;79;21004;-74
2022/03/30 11:41:06;;;;;;;12.03;4.62;;;;;;;15.26;41.03;99402.28;1802079;79;21295;-71
2022/03/30 11:46:32;;;;;;;9.73;4.08;;;;;;;15.23;40.32;99395.42;1790286;79;21426;-74